sensor_id;sensor_type;location;lat;lon;timestamp;P1;durP1;ratioP1;P2;durP2;ratioP2
3815;SDS011;1923;48.154;11.536;2023-12-14T00:01:38;0.93;;;0.70;;
3815;SDS011;1923;48.154;11.536;2023-12-14T00:04:07;1.87;;;0.83;;
3815;SDS011;1923;48.154;11.536;2023-12-14T00:06:35;1.57;;;1.13;;
3815;SDS011;1923;48.154;11.536;2023-12-14T00:09:04;1.45;;;0.90;;
3815;SDS011;1923;48.154;11.536;2023-12-14T00:11:34;2.03;;;1.00;;
3815;SDS011;1923;48.154;11.536;2023-12-14T00:14:05;0.80;;;0.80;;
3815;SDS011;1923;48.154;11.536;2023-12-14T00:16:34;0.90;;;0.80;;
3815;SDS011;1923;48.154;11.536;2023-12-14T00:19:02;1.43;;;0.90;;
3815;SDS011;1923;48.154;11.536;2023-12-14T00:21:30;2.00;;;0.83;;
3815;SDS011;1923;48.154;11.536;2023-12-14T00:23:58;1.50;;;1.17;;
3815;SDS011;1923;48.154;11.536;2023-12-14T00:26:26;1.60;;;1.07;;
3815;SDS011;1923;48.154;11.536;2023-12-14T00:28:59;1.40;;;1.10;;
3815;SDS011;1923;48.154;11.536;2023-12-14T00:31:28;1.27;;;0.93;;
3815;SDS011;1923;48.154;11.536;2023-12-14T00:33:57;1.23;;;0.90;;
3815;SDS011;1923;48.154;11.536;2023-12-14T00:36:25;0.90;;;0.80;;
3815;SDS011;1923;48.154;11.536;2023-12-14T00:38:53;1.80;;;1.07;;
3815;SDS011;1923;48.154;11.536;2023-12-14T00:41:23;1.33;;;0.97;;
3815;SDS011;1923;48.154;11.536;2023-12-14T00:43:51;1.00;;;0.90;;
3815;SDS011;1923;48.154;11.536;2023-12-14T00:46:20;1.40;;;0.90;;
3815;SDS011;1923;48.154;11.536;2023-12-14T00:48:48;1.27;;;0.97;;
3815;SDS011;1923;48.154;11.536;2023-12-14T00:51:17;1.70;;;1.07;;
3815;SDS011;1923;48.154;11.536;2023-12-14T00:53:45;1.27;;;0.93;;
3815;SDS011;1923;48.154;11.536;2023-12-14T00:56:13;1.80;;;1.47;;
3815;SDS011;1923;48.154;11.536;2023-12-14T00:58:43;1.27;;;1.17;;
3815;SDS011;1923;48.154;11.536;2023-12-14T01:01:11;1.40;;;0.93;;
3815;SDS011;1923;48.154;11.536;2023-12-14T01:03:41;1.33;;;0.83;;
3815;SDS011;1923;48.154;11.536;2023-12-14T01:06:11;2.47;;;1.17;;
3815;SDS011;1923;48.154;11.536;2023-12-14T01:08:40;2.20;;;1.10;;
3815;SDS011;1923;48.154;11.536;2023-12-14T01:11:07;2.37;;;1.70;;
3815;SDS011;1923;48.154;11.536;2023-12-14T01:13:37;2.60;;;1.13;;
3815;SDS011;1923;48.154;11.536;2023-12-14T01:16:05;1.93;;;1.40;;
3815;SDS011;1923;48.154;11.536;2023-12-14T01:18:33;2.07;;;1.30;;
3815;SDS011;1923;48.154;11.536;2023-12-14T01:21:03;1.37;;;1.10;;
3815;SDS011;1923;48.154;11.536;2023-12-14T01:23:31;2.20;;;1.30;;
3815;SDS011;1923;48.154;11.536;2023-12-14T01:25:59;1.37;;;1.10;;
3815;SDS011;1923;48.154;11.536;2023-12-14T01:28:31;2.30;;;1.13;;
3815;SDS011;1923;48.154;11.536;2023-12-14T01:30:59;1.30;;;1.00;;
3815;SDS011;1923;48.154;11.536;2023-12-14T01:33:27;3.90;;;1.10;;
3815;SDS011;1923;48.154;11.536;2023-12-14T01:35:55;1.10;;;0.80;;
3815;SDS011;1923;48.154;11.536;2023-12-14T01:38:24;1.27;;;1.03;;
3815;SDS011;1923;48.154;11.536;2023-12-14T01:40:52;1.23;;;0.80;;
3815;SDS011;1923;48.154;11.536;2023-12-14T01:43:22;1.10;;;1.00;;
3815;SDS011;1923;48.154;11.536;2023-12-14T01:45:50;0.80;;;0.70;;
3815;SDS011;1923;48.154;11.536;2023-12-14T01:48:18;0.97;;;0.90;;
3815;SDS011;1923;48.154;11.536;2023-12-14T01:50:46;0.90;;;0.57;;
3815;SDS011;1923;48.154;11.536;2023-12-14T01:53:14;1.17;;;1.00;;
3815;SDS011;1923;48.154;11.536;2023-12-14T01:55:44;1.30;;;0.60;;
3815;SDS011;1923;48.154;11.536;2023-12-14T01:58:12;1.10;;;0.60;;
3815;SDS011;1923;48.154;11.536;2023-12-14T02:00:41;1.00;;;1.00;;
3815;SDS011;1923;48.154;11.536;2023-12-14T02:03:13;1.20;;;0.83;;
3815;SDS011;1923;48.154;11.536;2023-12-14T02:05:42;0.90;;;0.63;;
3815;SDS011;1923;48.154;11.536;2023-12-14T02:08:10;0.50;;;0.40;;
3815;SDS011;1923;48.154;11.536;2023-12-14T02:10:38;1.23;;;0.50;;
3815;SDS011;1923;48.154;11.536;2023-12-14T02:13:08;0.70;;;0.50;;
3815;SDS011;1923;48.154;11.536;2023-12-14T02:15:36;0.93;;;0.47;;
3815;SDS011;1923;48.154;11.536;2023-12-14T02:18:07;1.10;;;0.67;;
3815;SDS011;1923;48.154;11.536;2023-12-14T02:20:35;0.60;;;0.50;;
3815;SDS011;1923;48.154;11.536;2023-12-14T02:23:04;0.70;;;0.60;;
3815;SDS011;1923;48.154;11.536;2023-12-14T02:25:33;1.03;;;0.70;;
3815;SDS011;1923;48.154;11.536;2023-12-14T02:28:01;0.90;;;0.50;;
3815;SDS011;1923;48.154;11.536;2023-12-14T02:30:29;1.47;;;0.77;;
3815;SDS011;1923;48.154;11.536;2023-12-14T02:32:57;0.90;;;0.70;;
3815;SDS011;1923;48.154;11.536;2023-12-14T02:35:25;2.70;;;0.90;;
3815;SDS011;1923;48.154;11.536;2023-12-14T02:37:53;1.13;;;0.90;;
3815;SDS011;1923;48.154;11.536;2023-12-14T02:40:23;1.20;;;1.00;;
3815;SDS011;1923;48.154;11.536;2023-12-14T02:42:51;1.37;;;1.03;;
3815;SDS011;1923;48.154;11.536;2023-12-14T02:45:19;3.60;;;1.70;;
3815;SDS011;1923;48.154;11.536;2023-12-14T02:47:47;1.47;;;1.13;;
3815;SDS011;1923;48.154;11.536;2023-12-14T02:50:16;1.77;;;1.53;;
3815;SDS011;1923;48.154;11.536;2023-12-14T02:52:44;2.43;;;1.80;;
3815;SDS011;1923;48.154;11.536;2023-12-14T02:55:12;1.93;;;1.73;;
3815;SDS011;1923;48.154;11.536;2023-12-14T02:57:41;1.77;;;1.43;;
3815;SDS011;1923;48.154;11.536;2023-12-14T03:00:11;2.97;;;2.00;;
3815;SDS011;1923;48.154;11.536;2023-12-14T03:02:40;2.40;;;2.03;;
3815;SDS011;1923;48.154;11.536;2023-12-14T03:05:08;1.93;;;1.77;;
3815;SDS011;1923;48.154;11.536;2023-12-14T03:07:36;4.17;;;2.33;;
3815;SDS011;1923;48.154;11.536;2023-12-14T03:10:05;2.70;;;1.90;;
3815;SDS011;1923;48.154;11.536;2023-12-14T03:12:34;2.27;;;1.80;;
3815;SDS011;1923;48.154;11.536;2023-12-14T03:15:04;2.80;;;1.83;;
3815;SDS011;1923;48.154;11.536;2023-12-14T03:17:57;3.00;;;2.10;;
3815;SDS011;1923;48.154;11.536;2023-12-14T03:20:25;2.23;;;2.03;;
3815;SDS011;1923;48.154;11.536;2023-12-14T03:22:53;3.10;;;2.47;;
3815;SDS011;1923;48.154;11.536;2023-12-14T03:25:21;2.17;;;1.60;;
3815;SDS011;1923;48.154;11.536;2023-12-14T03:27:49;2.03;;;1.83;;
3815;SDS011;1923;48.154;11.536;2023-12-14T03:30:18;2.30;;;2.10;;
3815;SDS011;1923;48.154;11.536;2023-12-14T03:32:46;2.47;;;2.23;;
3815;SDS011;1923;48.154;11.536;2023-12-14T03:35:14;3.90;;;2.00;;
3815;SDS011;1923;48.154;11.536;2023-12-14T03:37:43;3.13;;;2.10;;
3815;SDS011;1923;48.154;11.536;2023-12-14T03:40:11;3.27;;;2.17;;
3815;SDS011;1923;48.154;11.536;2023-12-14T03:42:40;3.53;;;2.20;;
3815;SDS011;1923;48.154;11.536;2023-12-14T03:45:08;2.80;;;2.07;;
3815;SDS011;1923;48.154;11.536;2023-12-14T03:47:38;2.27;;;2.00;;
3815;SDS011;1923;48.154;11.536;2023-12-14T03:50:07;3.70;;;2.00;;
3815;SDS011;1923;48.154;11.536;2023-12-14T03:52:38;2.70;;;1.97;;
3815;SDS011;1923;48.154;11.536;2023-12-14T03:55:06;3.33;;;2.10;;
3815;SDS011;1923;48.154;11.536;2023-12-14T03:57:35;3.50;;;2.30;;
3815;SDS011;1923;48.154;11.536;2023-12-14T04:00:03;3.27;;;2.30;;
3815;SDS011;1923;48.154;11.536;2023-12-14T04:02:32;3.47;;;2.53;;
3815;SDS011;1923;48.154;11.536;2023-12-14T04:05:02;3.63;;;1.93;;
3815;SDS011;1923;48.154;11.536;2023-12-14T04:07:32;2.93;;;2.30;;
3815;SDS011;1923;48.154;11.536;2023-12-14T04:10:01;3.80;;;2.60;;
3815;SDS011;1923;48.154;11.536;2023-12-14T04:12:29;2.53;;;2.23;;
3815;SDS011;1923;48.154;11.536;2023-12-14T04:14:57;3.17;;;2.50;;
3815;SDS011;1923;48.154;11.536;2023-12-14T04:17:25;3.20;;;2.33;;
3815;SDS011;1923;48.154;11.536;2023-12-14T04:19:53;3.57;;;2.63;;
3815;SDS011;1923;48.154;11.536;2023-12-14T04:22:23;3.63;;;1.90;;
3815;SDS011;1923;48.154;11.536;2023-12-14T04:24:51;3.27;;;2.30;;
3815;SDS011;1923;48.154;11.536;2023-12-14T04:27:19;4.00;;;2.40;;
3815;SDS011;1923;48.154;11.536;2023-12-14T04:29:50;3.70;;;2.80;;
3815;SDS011;1923;48.154;11.536;2023-12-14T04:32:18;2.77;;;2.13;;
3815;SDS011;1923;48.154;11.536;2023-12-14T04:34:46;4.60;;;2.60;;
3815;SDS011;1923;48.154;11.536;2023-12-14T04:37:14;4.40;;;2.10;;
3815;SDS011;1923;48.154;11.536;2023-12-14T04:39:43;4.63;;;1.97;;
3815;SDS011;1923;48.154;11.536;2023-12-14T04:42:11;3.30;;;2.07;;
3815;SDS011;1923;48.154;11.536;2023-12-14T04:44:40;2.90;;;2.00;;
3815;SDS011;1923;48.154;11.536;2023-12-14T04:47:08;2.90;;;1.93;;
3815;SDS011;1923;48.154;11.536;2023-12-14T04:49:36;2.80;;;2.07;;
3815;SDS011;1923;48.154;11.536;2023-12-14T04:52:04;2.63;;;1.97;;
3815;SDS011;1923;48.154;11.536;2023-12-14T04:54:32;1.80;;;1.60;;
3815;SDS011;1923;48.154;11.536;2023-12-14T04:57:03;2.60;;;2.07;;
3815;SDS011;1923;48.154;11.536;2023-12-14T04:59:32;3.57;;;1.77;;
3815;SDS011;1923;48.154;11.536;2023-12-14T05:02:00;2.10;;;1.47;;
3815;SDS011;1923;48.154;11.536;2023-12-14T05:04:28;2.43;;;1.60;;
3815;SDS011;1923;48.154;11.536;2023-12-14T05:06:56;2.37;;;1.83;;
3815;SDS011;1923;48.154;11.536;2023-12-14T05:09:24;4.20;;;1.60;;
3815;SDS011;1923;48.154;11.536;2023-12-14T05:11:52;1.40;;;1.30;;
3815;SDS011;1923;48.154;11.536;2023-12-14T05:14:22;1.40;;;1.10;;
3815;SDS011;1923;48.154;11.536;2023-12-14T05:16:50;1.60;;;1.20;;
3815;SDS011;1923;48.154;11.536;2023-12-14T05:19:18;2.23;;;1.33;;
3815;SDS011;1923;48.154;11.536;2023-12-14T05:21:46;2.47;;;1.67;;
3815;SDS011;1923;48.154;11.536;2023-12-14T05:24:14;1.60;;;1.40;;
3815;SDS011;1923;48.154;11.536;2023-12-14T05:26:43;2.10;;;1.57;;
3815;SDS011;1923;48.154;11.536;2023-12-14T05:29:11;3.10;;;1.43;;
3815;SDS011;1923;48.154;11.536;2023-12-14T05:31:40;2.47;;;1.73;;
3815;SDS011;1923;48.154;11.536;2023-12-14T05:34:08;3.40;;;2.10;;
3815;SDS011;1923;48.154;11.536;2023-12-14T05:36:37;1.70;;;1.30;;
3815;SDS011;1923;48.154;11.536;2023-12-14T05:39:05;4.57;;;3.20;;
3815;SDS011;1923;48.154;11.536;2023-12-14T05:41:33;1.70;;;1.47;;
3815;SDS011;1923;48.154;11.536;2023-12-14T05:44:06;2.73;;;1.60;;
3815;SDS011;1923;48.154;11.536;2023-12-14T05:46:35;3.80;;;1.97;;
3815;SDS011;1923;48.154;11.536;2023-12-14T05:49:04;13.50;;;6.60;;
3815;SDS011;1923;48.154;11.536;2023-12-14T05:51:33;12.80;;;5.80;;
3815;SDS011;1923;48.154;11.536;2023-12-14T05:54:01;5.20;;;2.60;;
3815;SDS011;1923;48.154;11.536;2023-12-14T05:56:29;6.10;;;2.70;;
3815;SDS011;1923;48.154;11.536;2023-12-14T05:58:57;4.60;;;2.87;;
3815;SDS011;1923;48.154;11.536;2023-12-14T06:01:25;5.50;;;3.50;;
3815;SDS011;1923;48.154;11.536;2023-12-14T06:03:53;6.80;;;3.33;;
3815;SDS011;1923;48.154;11.536;2023-12-14T06:06:23;9.33;;;4.03;;
3815;SDS011;1923;48.154;11.536;2023-12-14T06:08:51;2.37;;;1.90;;
3815;SDS011;1923;48.154;11.536;2023-12-14T06:11:19;3.03;;;2.30;;
3815;SDS011;1923;48.154;11.536;2023-12-14T06:13:50;3.60;;;2.33;;
3815;SDS011;1923;48.154;11.536;2023-12-14T06:16:18;3.10;;;2.00;;
3815;SDS011;1923;48.154;11.536;2023-12-14T06:18:46;6.27;;;2.77;;
3815;SDS011;1923;48.154;11.536;2023-12-14T06:21:15;3.97;;;2.20;;
3815;SDS011;1923;48.154;11.536;2023-12-14T06:23:44;5.33;;;3.30;;
3815;SDS011;1923;48.154;11.536;2023-12-14T06:26:15;5.47;;;3.20;;
3815;SDS011;1923;48.154;11.536;2023-12-14T06:28:44;9.57;;;3.90;;
3815;SDS011;1923;48.154;11.536;2023-12-14T06:31:12;6.27;;;2.70;;
3815;SDS011;1923;48.154;11.536;2023-12-14T06:33:41;5.40;;;3.47;;
3815;SDS011;1923;48.154;11.536;2023-12-14T06:36:09;9.30;;;4.70;;
3815;SDS011;1923;48.154;11.536;2023-12-14T06:38:38;4.13;;;3.07;;
3815;SDS011;1923;48.154;11.536;2023-12-14T06:41:08;5.10;;;2.97;;
3815;SDS011;1923;48.154;11.536;2023-12-14T06:43:36;4.93;;;3.00;;
3815;SDS011;1923;48.154;11.536;2023-12-14T06:46:04;5.70;;;3.00;;
3815;SDS011;1923;48.154;11.536;2023-12-14T06:48:32;4.30;;;2.87;;
3815;SDS011;1923;48.154;11.536;2023-12-14T06:51:00;8.03;;;4.90;;
3815;SDS011;1923;48.154;11.536;2023-12-14T06:53:28;3.60;;;2.53;;
3815;SDS011;1923;48.154;11.536;2023-12-14T06:55:56;4.93;;;2.67;;
3815;SDS011;1923;48.154;11.536;2023-12-14T06:58:26;6.50;;;3.67;;
3815;SDS011;1923;48.154;11.536;2023-12-14T07:00:54;2.97;;;2.33;;
3815;SDS011;1923;48.154;11.536;2023-12-14T07:03:22;6.77;;;3.53;;
3815;SDS011;1923;48.154;11.536;2023-12-14T07:05:50;9.10;;;4.73;;
3815;SDS011;1923;48.154;11.536;2023-12-14T07:08:19;7.27;;;4.50;;
3815;SDS011;1923;48.154;11.536;2023-12-14T07:10:47;9.13;;;3.80;;
3815;SDS011;1923;48.154;11.536;2023-12-14T07:13:15;5.97;;;3.47;;
3815;SDS011;1923;48.154;11.536;2023-12-14T07:15:44;5.43;;;3.30;;
3815;SDS011;1923;48.154;11.536;2023-12-14T07:18:12;7.43;;;4.33;;
3815;SDS011;1923;48.154;11.536;2023-12-14T07:20:41;6.23;;;3.63;;
3815;SDS011;1923;48.154;11.536;2023-12-14T07:23:09;9.50;;;4.10;;
3815;SDS011;1923;48.154;11.536;2023-12-14T07:25:37;5.57;;;3.60;;
3815;SDS011;1923;48.154;11.536;2023-12-14T07:28:05;5.37;;;3.00;;
3815;SDS011;1923;48.154;11.536;2023-12-14T07:30:33;7.90;;;3.67;;
3815;SDS011;1923;48.154;11.536;2023-12-14T07:33:06;9.60;;;3.77;;
3815;SDS011;1923;48.154;11.536;2023-12-14T07:35:34;9.03;;;4.10;;
3815;SDS011;1923;48.154;11.536;2023-12-14T07:38:02;7.60;;;4.20;;
3815;SDS011;1923;48.154;11.536;2023-12-14T07:40:30;9.20;;;3.80;;
3815;SDS011;1923;48.154;11.536;2023-12-14T07:42:58;9.37;;;4.57;;
3815;SDS011;1923;48.154;11.536;2023-12-14T07:45:26;11.87;;;5.77;;
3815;SDS011;1923;48.154;11.536;2023-12-14T07:47:54;10.53;;;5.23;;
3815;SDS011;1923;48.154;11.536;2023-12-14T07:50:24;9.93;;;5.40;;
3815;SDS011;1923;48.154;11.536;2023-12-14T07:52:53;9.37;;;5.17;;
3815;SDS011;1923;48.154;11.536;2023-12-14T07:55:21;9.30;;;5.03;;
3815;SDS011;1923;48.154;11.536;2023-12-14T07:57:49;9.73;;;5.40;;
3815;SDS011;1923;48.154;11.536;2023-12-14T08:00:17;12.50;;;5.83;;
3815;SDS011;1923;48.154;11.536;2023-12-14T08:02:46;9.67;;;5.37;;
3815;SDS011;1923;48.154;11.536;2023-12-14T08:05:13;12.30;;;6.07;;
3815;SDS011;1923;48.154;11.536;2023-12-14T08:07:43;8.70;;;4.83;;
3815;SDS011;1923;48.154;11.536;2023-12-14T08:10:11;10.10;;;5.00;;
3815;SDS011;1923;48.154;11.536;2023-12-14T08:12:39;11.63;;;4.70;;
3815;SDS011;1923;48.154;11.536;2023-12-14T08:15:08;9.40;;;5.20;;
3815;SDS011;1923;48.154;11.536;2023-12-14T08:17:38;10.70;;;6.10;;
3815;SDS011;1923;48.154;11.536;2023-12-14T08:20:08;11.40;;;6.40;;
3815;SDS011;1923;48.154;11.536;2023-12-14T08:22:38;13.70;;;6.27;;
3815;SDS011;1923;48.154;11.536;2023-12-14T08:25:13;12.23;;;6.60;;
3815;SDS011;1923;48.154;11.536;2023-12-14T08:27:42;9.27;;;5.10;;
3815;SDS011;1923;48.154;11.536;2023-12-14T08:30:11;11.60;;;5.97;;
3815;SDS011;1923;48.154;11.536;2023-12-14T08:32:40;11.27;;;5.90;;
3815;SDS011;1923;48.154;11.536;2023-12-14T08:35:09;13.63;;;6.97;;
3815;SDS011;1923;48.154;11.536;2023-12-14T08:37:38;17.07;;;6.77;;
3815;SDS011;1923;48.154;11.536;2023-12-14T08:40:06;9.67;;;5.60;;
3815;SDS011;1923;48.154;11.536;2023-12-14T08:42:37;10.97;;;5.67;;
3815;SDS011;1923;48.154;11.536;2023-12-14T08:45:05;9.40;;;6.37;;
3815;SDS011;1923;48.154;11.536;2023-12-14T08:47:37;11.57;;;5.90;;
3815;SDS011;1923;48.154;11.536;2023-12-14T08:50:06;11.00;;;5.13;;
3815;SDS011;1923;48.154;11.536;2023-12-14T08:52:35;10.13;;;5.80;;
3815;SDS011;1923;48.154;11.536;2023-12-14T08:55:04;10.10;;;5.37;;
3815;SDS011;1923;48.154;11.536;2023-12-14T08:57:33;9.53;;;4.63;;
3815;SDS011;1923;48.154;11.536;2023-12-14T09:00:03;9.53;;;4.80;;
3815;SDS011;1923;48.154;11.536;2023-12-14T09:02:32;7.60;;;4.30;;
3815;SDS011;1923;48.154;11.536;2023-12-14T09:05:01;10.80;;;5.20;;
3815;SDS011;1923;48.154;11.536;2023-12-14T09:07:31;9.50;;;4.60;;
3815;SDS011;1923;48.154;11.536;2023-12-14T09:09:59;6.87;;;3.80;;
3815;SDS011;1923;48.154;11.536;2023-12-14T09:12:27;6.10;;;3.77;;
3815;SDS011;1923;48.154;11.536;2023-12-14T09:14:55;7.63;;;4.07;;
3815;SDS011;1923;48.154;11.536;2023-12-14T09:17:24;9.10;;;4.70;;
3815;SDS011;1923;48.154;11.536;2023-12-14T09:19:52;9.17;;;4.37;;
3815;SDS011;1923;48.154;11.536;2023-12-14T09:22:20;5.57;;;3.40;;
3815;SDS011;1923;48.154;11.536;2023-12-14T09:24:48;5.63;;;3.10;;
3815;SDS011;1923;48.154;11.536;2023-12-14T09:27:16;18.60;;;8.03;;
3815;SDS011;1923;48.154;11.536;2023-12-14T09:29:44;6.40;;;4.23;;
3815;SDS011;1923;48.154;11.536;2023-12-14T09:32:13;6.57;;;3.60;;
3815;SDS011;1923;48.154;11.536;2023-12-14T09:34:45;5.97;;;3.70;;
3815;SDS011;1923;48.154;11.536;2023-12-14T09:37:13;8.20;;;3.70;;
3815;SDS011;1923;48.154;11.536;2023-12-14T09:39:41;17.37;;;5.37;;
3815;SDS011;1923;48.154;11.536;2023-12-14T09:42:10;4.50;;;3.30;;
3815;SDS011;1923;48.154;11.536;2023-12-14T09:44:37;5.90;;;2.77;;
3815;SDS011;1923;48.154;11.536;2023-12-14T09:47:06;5.37;;;2.93;;
3815;SDS011;1923;48.154;11.536;2023-12-14T09:49:34;5.67;;;3.17;;
3815;SDS011;1923;48.154;11.536;2023-12-14T09:52:05;6.40;;;3.20;;
3815;SDS011;1923;48.154;11.536;2023-12-14T09:54:33;7.77;;;3.73;;
3815;SDS011;1923;48.154;11.536;2023-12-14T09:57:02;9.23;;;4.23;;
3815;SDS011;1923;48.154;11.536;2023-12-14T09:59:30;7.40;;;3.87;;
3815;SDS011;1923;48.154;11.536;2023-12-14T10:04:47;9.90;;;4.60;;
3815;SDS011;1923;48.154;11.536;2023-12-14T10:07:16;6.87;;;4.33;;
3815;SDS011;1923;48.154;11.536;2023-12-14T10:09:45;8.20;;;4.57;;
3815;SDS011;1923;48.154;11.536;2023-12-14T10:12:13;7.50;;;4.17;;
3815;SDS011;1923;48.154;11.536;2023-12-14T10:14:41;11.20;;;5.00;;
3815;SDS011;1923;48.154;11.536;2023-12-14T10:17:13;9.00;;;4.20;;
3815;SDS011;1923;48.154;11.536;2023-12-14T10:19:43;7.53;;;4.10;;
3815;SDS011;1923;48.154;11.536;2023-12-14T10:22:11;6.70;;;4.27;;
3815;SDS011;1923;48.154;11.536;2023-12-14T10:24:43;6.87;;;4.07;;
3815;SDS011;1923;48.154;11.536;2023-12-14T10:27:15;8.57;;;4.40;;
3815;SDS011;1923;48.154;11.536;2023-12-14T10:29:44;7.77;;;4.40;;
3815;SDS011;1923;48.154;11.536;2023-12-14T10:32:12;6.73;;;4.00;;
3815;SDS011;1923;48.154;11.536;2023-12-14T10:34:41;6.00;;;3.83;;
3815;SDS011;1923;48.154;11.536;2023-12-14T10:37:09;5.03;;;3.57;;
3815;SDS011;1923;48.154;11.536;2023-12-14T10:39:39;5.43;;;4.07;;
3815;SDS011;1923;48.154;11.536;2023-12-14T10:42:12;4.93;;;3.10;;
3815;SDS011;1923;48.154;11.536;2023-12-14T10:44:48;7.60;;;3.80;;
3815;SDS011;1923;48.154;11.536;2023-12-14T10:47:22;8.82;;;3.80;;
3815;SDS011;1923;48.154;11.536;2023-12-14T10:49:50;7.40;;;3.97;;
3815;SDS011;1923;48.154;11.536;2023-12-14T10:52:19;10.93;;;3.60;;
3815;SDS011;1923;48.154;11.536;2023-12-14T10:54:52;5.90;;;3.57;;
3815;SDS011;1923;48.154;11.536;2023-12-14T10:57:24;7.20;;;3.30;;
3815;SDS011;1923;48.154;11.536;2023-12-14T10:59:55;7.07;;;4.40;;
3815;SDS011;1923;48.154;11.536;2023-12-14T11:02:25;10.38;;;4.20;;
3815;SDS011;1923;48.154;11.536;2023-12-14T11:04:54;5.87;;;3.57;;
3815;SDS011;1923;48.154;11.536;2023-12-14T11:10:12;5.53;;;3.03;;
3815;SDS011;1923;48.154;11.536;2023-12-14T11:12:50;6.50;;;4.00;;
3815;SDS011;1923;48.154;11.536;2023-12-14T11:15:19;6.00;;;3.30;;
3815;SDS011;1923;48.154;11.536;2023-12-14T11:20:57;7.03;;;3.67;;
3815;SDS011;1923;48.154;11.536;2023-12-14T11:23:28;7.37;;;3.87;;
3815;SDS011;1923;48.154;11.536;2023-12-14T11:26:00;6.83;;;3.83;;
3815;SDS011;1923;48.154;11.536;2023-12-14T11:28:31;4.10;;;2.70;;
3815;SDS011;1923;48.154;11.536;2023-12-14T11:31:04;7.60;;;3.67;;
3815;SDS011;1923;48.154;11.536;2023-12-14T11:33:34;5.70;;;3.00;;
3815;SDS011;1923;48.154;11.536;2023-12-14T11:36:10;4.37;;;3.20;;
3815;SDS011;1923;48.154;11.536;2023-12-14T11:38:41;5.47;;;2.83;;
3815;SDS011;1923;48.154;11.536;2023-12-14T11:41:11;3.83;;;2.57;;
3815;SDS011;1923;48.154;11.536;2023-12-14T11:43:39;6.37;;;2.37;;
3815;SDS011;1923;48.154;11.536;2023-12-14T11:46:08;6.00;;;2.40;;
3815;SDS011;1923;48.154;11.536;2023-12-14T11:48:36;2.90;;;1.97;;
3815;SDS011;1923;48.154;11.536;2023-12-14T11:51:08;3.40;;;2.00;;
3815;SDS011;1923;48.154;11.536;2023-12-14T11:53:37;4.88;;;2.10;;
3815;SDS011;1923;48.154;11.536;2023-12-14T11:56:06;3.93;;;2.13;;
3815;SDS011;1923;48.154;11.536;2023-12-14T11:58:36;3.20;;;1.70;;
3815;SDS011;1923;48.154;11.536;2023-12-14T12:01:12;2.70;;;2.10;;
3815;SDS011;1923;48.154;11.536;2023-12-14T12:03:41;3.00;;;1.80;;
3815;SDS011;1923;48.154;11.536;2023-12-14T12:06:19;3.40;;;1.83;;
3815;SDS011;1923;48.154;11.536;2023-12-14T12:08:47;2.93;;;1.90;;
3815;SDS011;1923;48.154;11.536;2023-12-14T12:11:16;3.20;;;1.70;;
3815;SDS011;1923;48.154;11.536;2023-12-14T12:13:51;2.50;;;1.50;;
3815;SDS011;1923;48.154;11.536;2023-12-14T12:16:19;3.27;;;1.83;;
3815;SDS011;1923;48.154;11.536;2023-12-14T12:18:48;2.30;;;2.10;;
3815;SDS011;1923;48.154;11.536;2023-12-14T12:21:18;3.17;;;2.50;;
3815;SDS011;1923;48.154;11.536;2023-12-14T12:23:46;3.63;;;2.37;;
3815;SDS011;1923;48.154;11.536;2023-12-14T12:26:14;3.10;;;1.77;;
3815;SDS011;1923;48.154;11.536;2023-12-14T12:28:42;8.93;;;2.80;;
3815;SDS011;1923;48.154;11.536;2023-12-14T12:31:12;5.70;;;1.50;;
3815;SDS011;1923;48.154;11.536;2023-12-14T12:33:40;3.80;;;2.23;;
3815;SDS011;1923;48.154;11.536;2023-12-14T12:36:08;3.97;;;2.63;;
3815;SDS011;1923;48.154;11.536;2023-12-14T12:38:37;3.30;;;2.30;;
3815;SDS011;1923;48.154;11.536;2023-12-14T12:41:06;3.43;;;2.13;;
3815;SDS011;1923;48.154;11.536;2023-12-14T12:43:35;4.50;;;2.20;;
3815;SDS011;1923;48.154;11.536;2023-12-14T12:46:03;3.53;;;3.20;;
3815;SDS011;1923;48.154;11.536;2023-12-14T12:48:33;4.60;;;2.50;;
3815;SDS011;1923;48.154;11.536;2023-12-14T12:51:02;7.63;;;2.87;;
3815;SDS011;1923;48.154;11.536;2023-12-14T12:53:30;5.37;;;2.70;;
3815;SDS011;1923;48.154;11.536;2023-12-14T12:55:59;3.97;;;2.40;;
3815;SDS011;1923;48.154;11.536;2023-12-14T12:58:28;11.00;;;2.87;;
3815;SDS011;1923;48.154;11.536;2023-12-14T13:00:56;3.40;;;1.70;;
3815;SDS011;1923;48.154;11.536;2023-12-14T13:03:25;4.80;;;1.80;;
3815;SDS011;1923;48.154;11.536;2023-12-14T13:05:54;5.00;;;2.73;;
3815;SDS011;1923;48.154;11.536;2023-12-14T13:08:22;2.20;;;1.70;;
3815;SDS011;1923;48.154;11.536;2023-12-14T13:10:50;2.23;;;1.60;;
3815;SDS011;1923;48.154;11.536;2023-12-14T13:13:21;2.67;;;2.00;;
3815;SDS011;1923;48.154;11.536;2023-12-14T13:15:49;2.30;;;1.53;;
3815;SDS011;1923;48.154;11.536;2023-12-14T13:18:17;2.80;;;1.93;;
3815;SDS011;1923;48.154;11.536;2023-12-14T13:20:45;6.30;;;2.40;;
3815;SDS011;1923;48.154;11.536;2023-12-14T13:23:15;3.87;;;2.20;;
3815;SDS011;1923;48.154;11.536;2023-12-14T13:25:43;3.07;;;1.97;;
3815;SDS011;1923;48.154;11.536;2023-12-14T13:28:11;3.17;;;2.00;;
3815;SDS011;1923;48.154;11.536;2023-12-14T13:30:43;3.43;;;1.70;;
3815;SDS011;1923;48.154;11.536;2023-12-14T13:33:11;5.33;;;1.97;;
3815;SDS011;1923;48.154;11.536;2023-12-14T13:35:40;3.30;;;2.10;;
3815;SDS011;1923;48.154;11.536;2023-12-14T13:38:09;3.30;;;2.33;;
3815;SDS011;1923;48.154;11.536;2023-12-14T13:40:39;2.90;;;1.97;;
3815;SDS011;1923;48.154;11.536;2023-12-14T13:43:07;4.90;;;2.80;;
3815;SDS011;1923;48.154;11.536;2023-12-14T13:45:37;4.10;;;2.57;;
3815;SDS011;1923;48.154;11.536;2023-12-14T13:48:08;3.20;;;2.10;;
3815;SDS011;1923;48.154;11.536;2023-12-14T13:50:36;3.93;;;2.40;;
3815;SDS011;1923;48.154;11.536;2023-12-14T13:53:04;2.70;;;1.90;;
3815;SDS011;1923;48.154;11.536;2023-12-14T13:55:33;5.87;;;3.10;;
3815;SDS011;1923;48.154;11.536;2023-12-14T13:58:03;4.73;;;2.70;;
3815;SDS011;1923;48.154;11.536;2023-12-14T14:00:31;3.87;;;1.70;;
3815;SDS011;1923;48.154;11.536;2023-12-14T14:03:01;6.70;;;2.13;;
3815;SDS011;1923;48.154;11.536;2023-12-14T14:05:30;4.27;;;2.43;;
3815;SDS011;1923;48.154;11.536;2023-12-14T14:07:59;5.10;;;2.57;;
3815;SDS011;1923;48.154;11.536;2023-12-14T14:10:27;4.70;;;2.10;;
3815;SDS011;1923;48.154;11.536;2023-12-14T14:12:55;9.03;;;2.73;;
3815;SDS011;1923;48.154;11.536;2023-12-14T14:15:25;8.97;;;3.00;;
3815;SDS011;1923;48.154;11.536;2023-12-14T14:17:54;6.43;;;3.03;;
3815;SDS011;1923;48.154;11.536;2023-12-14T14:20:22;5.93;;;2.70;;
3815;SDS011;1923;48.154;11.536;2023-12-14T14:22:51;3.67;;;2.10;;
3815;SDS011;1923;48.154;11.536;2023-12-14T14:25:19;4.27;;;2.60;;
3815;SDS011;1923;48.154;11.536;2023-12-14T14:27:47;3.57;;;2.60;;
3815;SDS011;1923;48.154;11.536;2023-12-14T14:30:15;5.13;;;2.13;;
3815;SDS011;1923;48.154;11.536;2023-12-14T14:32:45;10.70;;;2.80;;
3815;SDS011;1923;48.154;11.536;2023-12-14T14:35:13;6.10;;;4.00;;
3815;SDS011;1923;48.154;11.536;2023-12-14T14:37:42;4.83;;;2.83;;
3815;SDS011;1923;48.154;11.536;2023-12-14T14:40:13;4.43;;;2.70;;
3815;SDS011;1923;48.154;11.536;2023-12-14T14:42:41;3.17;;;2.50;;
3815;SDS011;1923;48.154;11.536;2023-12-14T14:45:10;5.30;;;2.57;;
3815;SDS011;1923;48.154;11.536;2023-12-14T14:47:39;6.53;;;2.50;;
3815;SDS011;1923;48.154;11.536;2023-12-14T14:50:10;5.27;;;2.63;;
3815;SDS011;1923;48.154;11.536;2023-12-14T14:52:38;7.00;;;2.90;;
3815;SDS011;1923;48.154;11.536;2023-12-14T14:55:07;5.63;;;2.83;;
3815;SDS011;1923;48.154;11.536;2023-12-14T14:57:35;3.60;;;2.57;;
3815;SDS011;1923;48.154;11.536;2023-12-14T15:00:04;5.10;;;2.80;;
3815;SDS011;1923;48.154;11.536;2023-12-14T15:02:37;5.03;;;2.87;;
3815;SDS011;1923;48.154;11.536;2023-12-14T15:05:05;6.03;;;3.63;;
3815;SDS011;1923;48.154;11.536;2023-12-14T15:07:35;3.60;;;2.70;;
3815;SDS011;1923;48.154;11.536;2023-12-14T15:10:04;5.87;;;3.27;;
3815;SDS011;1923;48.154;11.536;2023-12-14T15:12:32;5.97;;;3.60;;
3815;SDS011;1923;48.154;11.536;2023-12-14T15:15:01;5.40;;;3.17;;
3815;SDS011;1923;48.154;11.536;2023-12-14T15:17:32;6.40;;;4.00;;
3815;SDS011;1923;48.154;11.536;2023-12-14T15:20:01;7.80;;;3.60;;